Time;durP1;ratioP1;P1;durP2;ratioP2;P2;SDS_P1;SDS_P2;PMS_P1;PMS_P2;Temp;Humidity;BMP_temperature;BMP_pressure;BME280_temperature;BME280_humidity;BME280_pressure;Samples;Min_cycle;Max_cycle;Signal;HPM_P1;HPM_P2
2024/01/11 05:30:39;;;;;;;;;57.67;47.00;;;;;9.60;36.60;102474.69;5061037;27;45986;-76
2024/01/11 05:33:04;;;;;;;;;51.33;44.67;;;;;9.67;36.53;102487.09;5034639;28;45364;-76
2024/01/11 05:35:30;;;;;;;;;60.33;47.67;;;;;9.61;36.35;102493.38;5056547;28;45282;-75
2024/01/11 05:37:55;;;;;;;;;64.67;48.33;;;;;9.63;36.38;102496.03;5037343;28;45483;-76
2024/01/11 05:40:21;;;;;;;;;53.67;45.00;;;;;9.61;36.66;102488.03;5049804;28;54758;-76
2024/01/11 05:42:46;;;;;;;;;45.00;41.00;;;;;9.56;36.20;102481.88;5053782;28;45358;-74
2024/01/11 05:45:11;;;;;;;;;56.00;45.67;;;;;9.59;36.46;102486.31;5054686;28;54683;-75
2024/01/11 05:47:37;;;;;;;;;48.00;41.33;;;;;9.56;36.43;102489.91;5053866;28;45438;-74
2024/01/11 05:50:02;;;;;;;;;48.33;43.33;;;;;9.61;36.29;102498.75;5054379;28;46018;-74
2024/01/11 05:52:28;;;;;;;;;59.00;48.33;;;;;9.62;36.53;102491.59;5036572;28;45556;-75
2024/01/11 05:54:53;;;;;;;;;49.00;42.33;;;;;9.60;36.24;102493.44;5054756;28;45488;-75
2024/01/11 05:57:18;;;;;;;;;49.67;42.67;;;;;9.58;36.20;102504.16;5053892;28;50220;-73
2024/01/11 05:59:47;;;;;;;;;53.33;44.67;;;;;9.61;36.89;102509.44;5054376;28;45309;-75
2024/01/11 06:02:13;;;;;;;;;57.67;43.00;;;;;9.62;36.66;102500.50;5053814;28;45468;-76
2024/01/11 06:04:39;;;;;;;;;52.33;42.00;;;;;9.65;36.35;102521.03;5036352;28;45433;-77
2024/01/11 06:07:04;;;;;;;;;57.33;44.00;;;;;9.62;36.84;102521.94;5054037;28;45377;-74
2024/01/11 06:09:29;;;;;;;;;64.33;47.67;;;;;9.65;36.68;102526.38;5053937;28;55014;-74
2024/01/11 06:11:54;;;;;;;;;58.67;43.33;;;;;9.61;36.30;102509.44;5053447;28;62204;-74
2024/01/11 06:14:20;;;;;;;;;61.67;48.33;;;;;9.58;36.62;102513.97;5044210;28;45372;-76
2024/01/11 06:16:45;;;;;;;;;58.00;44.67;;;;;9.64;36.36;102538.00;5056819;28;45636;-77
2024/01/11 06:19:11;;;;;;;;;51.00;42.00;;;;;9.58;36.76;102513.97;5053848;28;56530;-78
2024/01/11 06:21:36;;;;;;;;;56.33;44.00;;;;;9.65;36.37;102545.13;5053696;28;45442;-74
2024/01/11 06:24:03;;;;;;;;;56.67;44.33;;;;;9.62;36.77;102538.00;5053744;28;45387;-75
2024/01/11 06:26:28;;;;;;;;;59.33;47.67;;;;;9.66;36.81;102552.25;5051888;28;45533;-76
2024/01/11 06:28:54;;;;;;;;;53.00;40.67;;;;;9.63;36.45;102545.13;5054256;28;46176;-78
2024/01/11 06:31:19;;;;;;;;;50.67;41.00;;;;;9.68;36.86;102562.06;5037417;28;45514;-73
2024/01/11 06:33:44;;;;;;;;;43.67;41.33;;;;;9.69;36.92;102555.78;5057562;28;45602;-72
2024/01/11 06:36:10;;;;;;;;;47.33;43.00;;;;;9.73;36.91;102552.16;5057594;28;45518;-75
2024/01/11 06:38:35;;;;;;;;;51.00;44.67;;;;;9.70;36.85;102546.81;5057327;28;46224;-70
2024/01/11 06:41:00;;;;;;;;;48.67;43.00;;;;;9.69;36.56;102547.75;5045474;28;45405;-75
2024/01/11 06:43:26;;;;;;;;;55.33;41.00;;;;;9.70;36.37;102553.97;5048458;28;45320;-74
2024/01/11 06:45:52;;;;;;;;;55.67;44.67;;;;;9.63;36.77;102552.28;5057355;28;45276;-75
2024/01/11 06:48:18;;;;;;;;;59.33;44.33;;;;;9.68;36.70;102575.44;5056898;28;46547;-73
2024/01/11 06:50:43;;;;;;;;;44.33;39.00;;;;;9.69;36.80;102576.31;5056908;28;47996;-74
2024/01/11 06:53:09;;;;;;;;;53.00;43.00;;;;;9.65;36.88;102578.16;5057330;28;45303;-75
2024/01/11 06:55:34;;;;;;;;;61.33;46.67;;;;;9.69;36.88;102585.25;5057323;28;46278;-75
2024/01/11 06:58:01;;;;;;;;;46.33;36.00;;;;;9.70;36.94;102586.09;5057068;28;45752;-75
2024/01/11 07:00:27;;;;;;;;;42.67;41.33;;;;;9.70;37.33;102583.44;5057319;28;45395;-77
2024/01/11 07:02:53;;;;;;;;;53.00;45.33;;;;;9.76;36.60;102584.25;5039293;28;45316;-76
2024/01/11 07:05:19;;;;;;;;;50.33;42.00;;;;;9.77;36.75;102590.50;5057690;28;45539;-78
2024/01/11 07:07:44;;;;;;;;;56.00;45.00;;;;;9.84;36.69;102597.53;5056960;28;45411;-74
2024/01/11 07:10:09;;;;;;;;;46.00;39.67;;;;;9.87;36.64;102611.75;5057046;28;45521;-77
2024/01/11 07:12:35;;;;;;;;;48.33;43.67;;;;;9.85;37.05;102599.31;5057083;28;45756;-77
2024/01/11 07:15:00;;;;;;;;;49.33;42.00;;;;;9.90;37.28;102605.50;5043050;28;45862;-77
2024/01/11 07:17:25;;;;;;;;;47.67;42.00;;;;;9.81;37.07;102592.22;5056084;28;45678;-76
2024/01/11 07:19:51;;;;;;;;;43.33;39.33;;;;;9.92;37.21;102605.47;5056398;28;55274;-76
2024/01/11 07:22:16;;;;;;;;;51.67;46.00;;;;;9.75;37.13;102576.25;5057049;28;45408;-75
2024/01/11 07:24:42;;;;;;;;;52.67;43.67;;;;;9.93;36.80;102602.78;5054998;28;45550;-77
2024/01/11 07:27:07;;;;;;;;;51.00;40.67;;;;;9.91;36.74;102603.69;5056530;28;47049;-77
2024/01/11 07:29:33;;;;;;;;;63.33;45.00;;;;;9.93;36.56;102609.94;5056950;28;45270;-77
2024/01/11 07:31:59;;;;;;;;;49.33;44.00;;;;;9.94;36.82;102617.06;5056741;28;45362;-77
2024/01/11 07:34:24;;;;;;;;;54.67;45.00;;;;;9.94;37.39;102619.75;5056788;28;45221;-77
2024/01/11 07:36:51;;;;;;;;;47.67;42.67;;;;;9.93;36.97;102626.91;5056752;28;46025;-78
2024/01/11 07:39:17;;;;;;;;;63.67;49.33;;;;;9.95;37.28;102626.88;5056653;28;45428;-76
2024/01/11 07:41:42;;;;;;;;;54.33;42.67;;;;;9.97;37.14;102631.28;5048883;28;48936;-77
2024/01/11 07:44:07;;;;;;;;;54.00;43.33;;;;;9.88;37.02;102620.69;5055570;28;55084;-77
2024/01/11 07:46:32;;;;;;;;;59.00;43.33;;;;;9.94;37.42;102631.34;5056423;28;45331;-76
2024/01/11 07:48:58;;;;;;;;;55.00;47.00;;;;;9.92;37.31;102624.22;5056812;28;50499;-77
2024/01/11 07:51:25;;;;;;;;;46.67;42.67;;;;;9.95;37.29;102626.88;5057726;28;45349;-76
2024/01/11 07:53:50;;;;;;;;;54.00;47.00;;;;;9.91;37.50;102623.34;5056910;28;45438;-77
2024/01/11 07:56:15;;;;;;;;;60.33;46.33;;;;;9.91;37.05;102642.09;5038640;28;46050;-77
2024/01/11 07:58:41;;;;;;;;;54.67;46.67;;;;;9.84;37.28;102618.97;5056579;28;45389;-77
2024/01/11 08:01:07;;;;;;;;;55.00;47.00;;;;;9.86;37.70;102630.56;5038656;28;45600;-76
2024/01/11 08:03:34;;;;;;;;;55.00;45.67;;;;;9.89;37.20;102635.88;5056271;28;45340;-77
2024/01/11 08:06:00;;;;;;;;;59.00;44.67;;;;;9.93;37.22;102642.09;5056757;28;46281;-78
2024/01/11 08:08:26;;;;;;;;;53.00;45.00;;;;;10.01;37.14;102657.16;5056012;28;45286;-78
2024/01/11 08:10:51;;;;;;;;;52.67;43.00;;;;;9.92;37.06;102643.88;5056727;28;45341;-77
2024/01/11 08:13:17;;;;;;;;;45.33;40.33;;;;;9.99;37.39;102652.72;5053551;28;45533;-78
2024/01/11 08:15:43;;;;;;;;;54.33;46.00;;;;;9.96;37.11;102642.91;5046313;28;45305;-77
2024/01/11 08:18:08;;;;;;;;;45.33;42.33;;;;;10.04;37.37;102658.88;5056356;28;45452;-78
2024/01/11 08:20:34;;;;;;;;;45.33;40.67;;;;;10.07;37.15;102656.19;5056743;28;49562;-78
2024/01/11 08:22:59;;;;;;;;;52.67;44.33;;;;;10.01;36.98;102642.88;5056403;28;45486;-78
2024/01/11 08:25:24;;;;;;;;;53.67;46.33;;;;;10.05;37.26;102648.16;5055181;28;45927;-78
2024/01/11 08:27:50;;;;;;;;;54.67;47.33;;;;;10.06;37.61;102643.69;5037788;28;46183;-77
2024/01/11 08:30:15;;;;;;;;;47.33;39.67;;;;;10.09;37.59;102644.53;5056522;28;45495;-77
2024/01/11 08:32:41;;;;;;;;;48.67;45.00;;;;;10.09;37.35;102643.66;5055597;28;45520;-75
2024/01/11 08:35:09;;;;;;;;;61.33;47.33;;;;;10.05;37.70;102641.91;5037873;28;48186;-78
2024/01/11 08:37:35;;;;;;;;;47.67;44.00;;;;;10.09;37.59;102646.31;5055826;28;45288;-77
2024/01/11 08:40:01;;;;;;;;;56.33;43.67;;;;;10.09;37.40;102647.22;5053264;28;45265;-79
2024/01/11 08:42:26;;;;;;;;;50.00;40.67;;;;;10.13;37.47;102648.03;5036168;28;45194;-77
2024/01/11 08:44:52;;;;;;;;;61.00;45.33;;;;;10.16;37.10;102658.72;5055765;28;45512;-76
2024/01/11 08:47:17;;;;;;;;;56.33;44.67;;;;;10.12;37.33;102652.50;5055367;28;45353;-77
2024/01/11 08:49:43;;;;;;;;;56.67;49.33;;;;;10.10;37.51;102653.47;5055790;28;45231;-77
2024/01/11 08:52:08;;;;;;;;;54.33;44.33;;;;;10.26;37.03;102664.88;5055832;28;45400;-78
2024/01/11 08:54:34;;;;;;;;;56.67;44.67;;;;;10.29;36.85;102659.50;5055322;28;45319;-78
2024/01/11 08:57:00;;;;;;;;;54.33;45.33;;;;;10.28;37.03;102652.38;5056054;28;45653;-77
2024/01/11 08:59:25;;;;;;;;;57.33;46.00;;;;;10.30;37.06;102671.97;5056045;28;45319;-78
2024/01/11 09:01:51;;;;;;;;;61.00;48.33;;;;;10.26;37.49;102656.84;5055715;28;45327;-79
2024/01/11 09:04:18;;;;;;;;;63.33;48.67;;;;;10.30;36.94;102656.78;5055748;28;45312;-77
2024/01/11 09:06:43;;;;;;;;;60.00;47.33;;;;;10.27;36.47;102647.91;5055575;28;45473;-78
2024/01/11 09:09:13;;;;;;;;;63.67;49.67;;;;;10.34;36.68;102669.25;5037476;28;45301;-77
2024/01/11 09:11:39;;;;;;;;;49.67;42.67;;;;;10.30;36.71;102666.59;5055176;28;45996;-78
2024/01/11 09:14:06;;;;;;;;;57.00;43.00;;;;;10.18;36.30;102643.56;5045644;28;46215;-77
2024/01/11 09:16:32;;;;;;;;;55.67;46.33;;;;;10.29;36.52;102675.59;5051369;28;45941;-77
2024/01/11 09:18:59;;;;;;;;;53.00;45.00;;;;;10.21;36.58;102659.56;5055531;28;45387;-76
2024/01/11 09:21:25;;;;;;;;;50.33;43.00;;;;;10.29;36.54;102675.59;5037104;28;46741;-78
2024/01/11 09:23:50;;;;;;;;;48.33;43.67;;;;;10.19;36.65;102648.91;5055124;28;47047;-78
2024/01/11 09:26:16;;;;;;;;;47.00;38.67;;;;;10.35;36.51;102670.13;5034419;28;60263;-77
2024/01/11 09:28:41;;;;;;;;;54.33;46.00;;;;;10.39;36.61;102677.19;5055565;28;45517;-78
2024/01/11 09:31:06;;;;;;;;;59.67;43.33;;;;;10.31;36.22;102666.59;5055133;28;45238;-78
2024/01/11 09:33:32;;;;;;;;;41.33;36.00;;;;;10.31;36.61;102666.59;5054906;28;48529;-76
2024/01/11 09:35:57;;;;;;;;;55.00;44.33;;;;;10.41;35.77;102670.91;5054750;28;45235;-78
2024/01/11 09:38:22;;;;;;;;;49.67;45.33;;;;;10.43;35.89;102669.09;5055148;28;45268;-76
2024/01/11 09:41:02;;;;;;;;;49.33;42.33;;;;;10.43;36.12;102671.78;5047265;28;45214;-78
2024/01/11 09:43:28;;;;;;;;;59.00;47.67;;;;;10.37;35.74;102663.84;5054947;28;46409;-77
2024/01/11 09:45:54;;;;;;;;;58.00;47.33;;;;;10.48;36.22;102666.34;5054552;28;45336;-77
2024/01/11 09:48:20;;;;;;;;;57.33;45.67;;;;;10.55;35.47;102673.38;5055186;28;45371;-77
2024/01/11 09:50:47;;;;;;;;;47.67;35.67;;;;;10.43;35.58;102654.81;5054462;28;45312;-77
2024/01/11 09:53:14;;;;;;;;;65.33;47.67;;;;;10.56;35.26;102685.88;5055051;28;46537;-77
2024/01/11 09:55:39;;;;;;;;;58.67;44.00;;;;;10.54;35.56;102674.31;5054436;28;45473;-77
2024/01/11 09:58:06;;;;;;;;;54.33;42.00;;;;;10.56;35.37;102675.16;5054878;28;45329;-77
2024/01/11 10:00:32;;;;;;;;;64.33;48.33;;;;;10.59;35.29;102681.38;5054577;28;45452;-77
2024/01/11 10:02:57;;;;;;;;;52.00;43.67;;;;;10.60;35.19;102668.84;5054381;28;45344;-77
2024/01/11 10:05:23;;;;;;;;;52.00;44.00;;;;;10.58;34.80;102657.25;5035104;28;45519;-78
2024/01/11 10:07:48;;;;;;;;;60.33;46.33;;;;;10.66;35.26;102660.69;5036512;28;45468;-78
2024/01/11 10:10:16;;;;;;;;;63.00;47.67;;;;;10.73;35.07;102670.41;5054443;28;45279;-75
2024/01/11 10:12:42;;;;;;;;;65.33;46.00;;;;;10.64;34.88;102657.16;5054594;28;45495;-77
2024/01/11 10:15:13;;;;;;;;;53.00;45.67;;;;;10.73;34.99;102682.94;5040880;28;45501;-78
2024/01/11 10:17:44;;;;;;;;;50.00;42.33;;;;;10.68;34.36;102668.72;5036445;28;45383;-78
2024/01/11 10:20:16;;;;;;;;;56.33;43.00;;;;;10.77;34.04;102680.22;5054056;28;46358;-77
2024/01/11 10:22:42;;;;;;;;;46.33;43.33;;;;;10.74;34.07;102677.56;5054297;28;45417;-76
2024/01/11 10:25:15;;;;;;;;;54.67;44.00;;;;;10.72;33.93;102662.44;5052652;28;45222;-77
2024/01/11 10:27:42;;;;;;;;;56.00;48.33;;;;;10.82;34.29;102670.28;5054410;28;45350;-76
2024/01/11 10:30:19;;;;;;;;;58.33;46.67;;;;;10.81;33.95;102667.63;5054452;28;45232;-77
2024/01/11 10:32:45;;;;;;;;;58.33;46.33;;;;;10.80;33.76;102650.63;5053828;28;45362;-79
2024/01/11 10:35:11;;;;;;;;;60.00;48.67;;;;;10.75;33.47;102631.03;5054183;28;45348;-76
2024/01/11 10:37:38;;;;;;;;;59.67;47.33;;;;;10.75;33.57;102648.94;5051652;28;45461;-77
2024/01/11 10:40:12;;;;;;;;;54.33;43.00;;;;;10.81;33.83;102654.19;5040479;28;45315;-78
2024/01/11 10:42:45;;;;;;;;;61.67;50.33;;;;;10.82;33.66;102654.19;5036215;28;45497;-77
2024/01/11 10:45:18;;;;;;;;;61.33;50.00;;;;;10.80;33.43;102650.63;5054343;28;45329;-77
2024/01/11 10:47:51;;;;;;;;;63.33;48.00;;;;;10.85;33.37;102638.03;5053894;28;45664;-76
2024/01/11 10:50:19;;;;;;;;;55.00;42.00;;;;;10.90;33.37;102641.53;5054034;28;45505;-78
2024/01/11 10:53:09;;;;;;;;;69.67;52.33;;;;;10.95;33.61;102649.50;5054443;28;46664;-77
2024/01/11 10:55:36;;;;;;;;;62.67;52.67;;;;;10.95;33.27;102645.03;5054413;28;45354;-77
2024/01/11 10:58:02;;;;;;;;;59.00;44.67;;;;;10.90;33.45;102636.16;5054285;28;45465;-78
2024/01/11 11:00:31;;;;;;;;;68.33;51.67;;;;;11.08;33.20;102652.84;5054282;28;45504;-77
2024/01/11 11:03:03;;;;;;;;;70.33;53.33;;;;;11.08;33.10;102664.47;5054185;28;45655;-77
2024/01/11 11:05:31;;;;;;;;;68.00;51.67;;;;;11.13;33.15;102649.19;5053518;28;45284;-77
2024/01/11 11:08:01;;;;;;;;;65.33;54.00;;;;;11.27;33.20;102662.34;5053828;28;45474;-76
2024/01/11 11:10:28;;;;;;;;;67.00;52.33;;;;;11.32;33.36;102650.59;5053943;28;45544;-77
2024/01/11 11:12:56;;;;;;;;;48.00;39.33;;;;;11.49;33.01;102650.28;5035680;28;46377;-77
2024/01/11 11:15:24;;;;;;;;;61.00;48.33;;;;;11.57;33.13;102645.66;5027206;28;45466;-77
2024/01/11 11:17:49;;;;;;;;;66.00;52.33;;;;;11.60;32.48;102658.13;5056123;28;45279;-76
2024/01/11 11:20:16;;;;;;;;;64.33;47.33;;;;;11.77;33.03;102657.84;5056837;28;45340;-76
2024/01/11 11:22:42;;;;;;;;;61.33;49.00;;;;;11.92;32.56;102639.59;5056805;28;45574;-77
2024/01/11 11:25:09;;;;;;;;;66.67;48.00;;;;;12.67;31.44;102662.13;5055124;28;45582;-77
2024/01/11 11:27:35;;;;;;;;;62.67;50.67;;;;;13.67;30.63;102648.72;5056977;28;45323;-77
2024/01/11 11:30:01;;;;;;;;;58.33;44.33;;;;;14.84;29.31;102657.72;5057135;28;45408;-78
2024/01/11 11:32:42;;;;;;;;;58.33;46.67;;;;;15.93;27.40;102661.94;5056244;28;46344;-77
2024/01/11 11:35:08;;;;;;;;;52.00;44.75;;;;;16.52;26.42;102661.44;5057035;28;45440;-77
2024/01/11 11:37:36;;;;;;;;;56.50;45.25;;;;;16.60;26.23;102656.59;5056719;28;45214;-78
2024/01/11 11:40:02;;;;;;;;;50.75;40.00;;;;;16.45;26.33;102663.50;5053588;28;45519;-76
2024/01/11 11:42:30;;;;;;;;;52.50;42.75;;;;;16.42;26.25;102660.91;5052377;28;46565;-77
2024/01/11 11:44:57;;;;;;;;;56.75;46.25;;;;;16.30;26.50;102653.28;5038403;28;45458;-78
2024/01/11 11:47:23;;;;;;;;;52.75;43.50;;;;;16.01;26.67;102656.22;5056345;28;45266;-76
2024/01/11 11:49:59;;;;;;;;;57.25;46.75;;;;;15.62;26.93;102661.31;5056611;28;45319;-78
2024/01/11 11:52:25;;;;;;;;;48.00;41.00;;;;;15.26;27.65;102653.53;5056239;28;45379;-79
2024/01/11 11:54:50;;;;;;;;;50.75;44.25;;;;;14.90;27.72;102658.38;5056674;28;45386;-76
2024/01/11 11:57:17;;;;;;;;;55.50;44.50;;;;;14.54;28.21;102673.09;5056159;28;45977;-77
2024/01/11 11:59:42;;;;;;;;;54.25;43.75;;;;;14.30;28.43;102672.88;5056454;28;45287;-77
2024/01/11 12:02:16;;;;;;;;;58.75;43.50;;;;;14.02;29.02;102675.53;5055922;28;45651;-77
2024/01/11 12:04:51;;;;;;;;;60.00;46.75;;;;;13.78;29.27;102667.28;5056162;28;45386;-76
2024/01/11 12:07:17;;;;;;;;;61.50;45.50;;;;;13.41;29.58;102641.34;5056425;28;45421;-77
2024/01/11 12:09:42;;;;;;;;;52.00;41.50;;;;;13.44;29.83;102665.50;5056099;28;45420;-76
2024/01/11 12:12:08;;;;;;;;;55.00;45.00;;;;;13.21;29.81;102658.03;5056158;28;45464;-79
2024/01/11 12:14:35;;;;;;;;;56.00;46.25;;;;;13.14;30.22;102664.53;5042592;28;45323;-78
2024/01/11 12:17:00;;;;;;;;;60.67;48.33;;;;;13.00;30.56;102652.31;5056832;28;45306;-78
2024/01/11 12:19:26;;;;;;;;;61.33;47.67;;;;;12.92;30.27;102674.06;5056515;28;45191;-77
2024/01/11 12:21:51;;;;;;;;;58.00;46.33;;;;;12.78;31.14;102657.34;5056244;28;46565;-76
2024/01/11 12:24:17;;;;;;;;;65.33;48.67;;;;;12.66;30.69;102649.56;5055073;28;45412;-76
2024/01/11 12:26:46;;;;;;;;;60.33;49.33;;;;;12.66;30.94;102654.97;5056095;28;45372;-78
2024/01/11 12:29:13;;;;;;;;;59.00;47.00;;;;;12.48;31.38;102641.03;5055165;28;45603;-76
2024/01/11 12:31:38;;;;;;;;;63.33;49.33;;;;;12.42;31.33;102637.56;5055741;28;46218;-77
2024/01/11 12:34:05;;;;;;;;;66.33;52.00;;;;;12.42;31.01;102649.22;5055712;28;45332;-77
2024/01/11 12:36:31;;;;;;;;;67.00;48.00;;;;;12.34;31.18;102636.88;5055980;28;45246;-79
2024/01/11 12:38:58;;;;;;;;;58.67;49.00;;;;;12.26;31.45;102626.28;5055668;28;45331;-77
2024/01/11 12:41:24;;;;;;;;;60.67;48.67;;;;;12.38;31.74;102649.34;5048498;28;46651;-77
2024/01/11 12:43:49;;;;;;;;;54.67;43.67;;;;;12.38;31.33;102644.84;5055643;28;45346;-78
2024/01/11 12:46:15;;;;;;;;;56.33;45.00;;;;;12.16;31.59;102599.66;5056260;28;45468;-76
2024/01/11 12:48:41;;;;;;;;;62.67;50.33;;;;;12.36;31.24;102630.53;5037712;28;47021;-77
2024/01/11 12:51:07;;;;;;;;;59.33;48.00;;;;;12.32;31.44;102633.34;5055779;28;46033;-77
2024/01/11 12:53:32;;;;;;;;;59.33;44.00;;;;;12.36;31.43;102629.66;5037861;28;45313;-76
2024/01/11 12:56:08;;;;;;;;;60.00;48.33;;;;;12.31;31.43;102612.75;5056566;28;45346;-76
2024/01/11 12:58:34;;;;;;;;;62.67;50.33;;;;;12.18;31.78;102587.94;5057632;28;45543;-76
2024/01/11 13:00:59;;;;;;;;;62.00;48.00;;;;;12.31;32.08;102615.44;5055709;28;45901;-77
2024/01/11 13:03:27;;;;;;;;;55.33;45.33;;;;;12.40;31.88;102615.22;5055431;28;45463;-79
2024/01/11 13:05:52;;;;;;;;;56.67;46.67;;;;;12.38;31.91;102612.56;5056002;28;45252;-76
2024/01/11 13:08:17;;;;;;;;;62.33;50.33;;;;;12.43;31.95;102617.81;5055114;28;45190;-76
2024/01/11 13:10:43;;;;;;;;;61.00;48.67;;;;;12.35;31.61;102587.53;5055354;28;45353;-78
2024/01/11 13:13:08;;;;;;;;;56.33;44.67;;;;;12.51;31.59;102607.75;5053473;28;45570;-77
2024/01/11 13:15:33;;;;;;;;;60.00;48.00;;;;;12.45;31.73;102608.81;5043776;28;45997;-78
2024/01/11 13:18:02;;;;;;;;;57.67;46.00;;;;;12.44;32.00;102598.06;5054567;28;55450;-77
2024/01/11 13:20:28;;;;;;;;;66.33;51.00;;;;;12.55;31.89;102611.28;5055564;28;46457;-77
2024/01/11 13:23:13;;;;;;;;;58.67;48.33;;;;;12.45;32.26;102599.84;5055567;28;45466;-77
2024/01/11 13:25:43;;;;;;;;;62.33;52.00;;;;;12.53;31.78;102614.00;5053841;28;45472;-78
2024/01/11 13:28:09;;;;;;;;;54.00;42.67;;;;;12.51;31.45;102603.25;5037435;28;45951;-76
2024/01/11 13:30:35;;;;;;;;;60.00;42.67;;;;;12.53;31.29;102600.53;5037422;28;46682;-78
2024/01/11 13:33:01;;;;;;;;;62.33;50.00;;;;;12.61;31.06;102606.63;5055290;28;45441;-78
2024/01/11 13:35:27;;;;;;;;;62.33;50.00;;;;;12.67;31.17;102619.06;5055533;28;45462;-78
2024/01/11 13:37:53;;;;;;;;;63.33;51.00;;;;;12.66;31.17;102614.59;5054699;28;45323;-79
2024/01/11 13:40:18;;;;;;;;;59.67;48.00;;;;;12.58;31.61;102603.13;5049559;28;46686;-77
2024/01/11 13:42:43;;;;;;;;;51.33;45.33;;;;;12.62;31.37;102616.47;5052009;28;50669;-77
2024/01/11 13:45:09;;;;;;;;;61.33;49.00;;;;;12.59;31.19;102619.22;5055287;28;45371;-77
2024/01/11 13:47:35;;;;;;;;;69.00;55.67;;;;;12.60;31.47;102621.00;5040042;28;45332;-77
2024/01/11 13:50:01;;;;;;;;;71.00;52.00;;;;;12.50;31.28;102604.19;5056898;28;45306;-77
2024/01/11 13:52:26;;;;;;;;;79.33;60.33;;;;;12.64;31.67;102611.94;5057595;28;45410;-78
2024/01/11 13:54:51;;;;;;;;;60.00;49.33;;;;;12.70;31.47;102621.66;5057661;28;45305;-77
2024/01/11 13:57:17;;;;;;;;;52.00;41.67;;;;;12.72;31.06;102614.44;5056855;28;45569;-78
2024/01/11 13:59:42;;;;;;;;;56.00;45.33;;;;;12.72;31.16;102631.47;5057073;28;45358;-77
2024/01/11 14:02:07;;;;;;;;;60.33;47.00;;;;;12.71;31.02;102618.03;5054923;28;45435;-76
2024/01/11 14:04:34;;;;;;;;;44.00;41.33;;;;;12.70;31.23;102619.84;5055788;28;45309;-76
2024/01/11 14:06:59;;;;;;;;;58.33;47.67;;;;;12.41;31.24;102569.47;5056299;28;45243;-78
2024/01/11 14:09:25;;;;;;;;;53.00;45.33;;;;;12.77;31.04;102613.38;5037864;28;46985;-77
2024/01/11 14:11:50;;;;;;;;;57.00;42.33;;;;;12.79;30.73;102621.44;5055980;28;46229;-78
2024/01/11 14:14:18;;;;;;;;;61.33;48.00;;;;;12.74;31.22;102607.22;5045456;28;45490;-77
2024/01/11 14:16:44;;;;;;;;;58.67;47.33;;;;;12.74;30.59;102594.66;5053970;28;45361;-77
2024/01/11 14:19:10;;;;;;;;;59.00;49.33;;;;;12.74;30.80;102600.03;5055356;28;45420;-77
2024/01/11 14:21:36;;;;;;;;;56.33;48.33;;;;;12.82;30.97;102611.47;5055531;28;45660;-79
2024/01/11 14:24:02;;;;;;;;;59.00;45.00;;;;;12.90;30.99;102622.06;5054998;28;45265;-77
2024/01/11 14:26:27;;;;;;;;;61.00;49.00;;;;;13.13;30.44;102613.34;5053084;28;45250;-77
2024/01/11 14:28:54;;;;;;;;;49.00;42.67;;;;;13.57;30.09;102617.56;5055291;28;46503;-77
2024/01/11 14:31:19;;;;;;;;;59.00;49.67;;;;;14.00;29.89;102604.59;5054454;28;45407;-77
2024/01/11 14:33:45;;;;;;;;;59.67;47.00;;;;;14.47;29.16;102615.72;5035972;28;45974;-78
2024/01/11 14:36:10;;;;;;;;;60.00;47.00;;;;;14.80;29.02;102613.72;5054790;28;45492;-78
2024/01/11 14:38:35;;;;;;;;;61.67;46.67;;;;;15.04;28.44;102610.19;5054354;28;46398;-77
2024/01/11 14:41:00;;;;;;;;;61.67;47.00;;;;;15.45;28.05;102621.34;5046411;28;45319;-78
2024/01/11 14:43:26;;;;;;;;;55.25;46.00;;;;;15.88;27.61;102631.50;5054798;28;45265;-79
2024/01/11 14:45:51;;;;;;;;;48.50;42.00;;;;;16.20;27.08;102635.66;5054043;28;47930;-77
2024/01/11 14:48:17;;;;;;;;;58.50;46.00;;;;;16.57;26.48;102630.53;5053693;28;53066;-78
2024/01/11 14:50:43;;;;;;;;;52.75;44.50;;;;;16.98;26.26;102631.53;5053905;28;45425;-77
2024/01/11 14:53:08;;;;;;;;;59.00;46.67;;;;;17.43;25.55;102644.06;5057289;28;45404;-79
2024/01/11 14:55:35;;;;;;;;;53.50;42.00;;;;;17.69;25.07;102641.06;5057272;28;45579;-78
2024/01/11 14:58:01;;;;;;;;;57.00;43.75;;;;;17.95;24.75;102630.88;5057586;28;45569;-77
2024/01/11 15:00:26;;;;;;;;;54.00;44.25;;;;;18.17;24.43;102653.31;5057358;28;45329;-78
2024/01/11 15:02:52;;;;;;;;;52.00;42.50;;;;;18.21;24.55;102643.19;5039989;28;45348;-77
2024/01/11 15:05:17;;;;;;;;;52.50;44.00;;;;;18.13;24.39;102652.56;5057213;28;45420;-78
2024/01/11 15:07:43;;;;;;;;;42.75;34.25;;;;;18.10;24.25;102657.28;5057671;28;46027;-77
2024/01/11 15:10:09;;;;;;;;;51.50;43.25;;;;;18.08;24.22;102657.34;5057279;28;45859;-79
2024/01/11 15:12:35;;;;;;;;;51.25;40.50;;;;;17.98;24.48;102637.00;5039435;28;45439;-77
2024/01/11 15:15:01;;;;;;;;;59.50;44.75;;;;;18.06;24.41;102652.94;5043516;28;45524;-77
2024/01/11 15:17:26;;;;;;;;;49.75;42.75;;;;;17.80;24.29;102658.69;5057242;28;45336;-79
2024/01/11 15:19:51;;;;;;;;;55.75;43.50;;;;;17.43;24.97;102665.75;5056956;28;45302;-78
2024/01/11 15:22:17;;;;;;;;;52.50;43.25;;;;;17.06;24.96;102668.25;5058327;28;45500;-78
2024/01/11 15:24:42;;;;;;;;;51.25;42.25;;;;;16.70;25.59;102674.25;5055779;28;45364;-77
2024/01/11 15:27:08;;;;;;;;;44.50;38.75;;;;;16.27;25.75;102670.53;5056974;28;45500;-77
2024/01/11 15:29:34;;;;;;;;;44.75;39.75;;;;;15.75;26.38;102651.81;5057012;28;45318;-77
2024/01/11 15:31:59;;;;;;;;;49.50;42.75;;;;;15.52;26.77;102669.72;5038812;28;45419;-77
2024/01/11 15:34:24;;;;;;;;;48.50;41.00;;;;;15.19;27.55;102667.31;5056774;28;45442;-77
2024/01/11 15:36:50;;;;;;;;;52.75;42.25;;;;;14.93;27.59;102673.63;5056306;28;55647;-78
2024/01/11 15:39:15;;;;;;;;;58.00;48.00;;;;;14.59;27.94;102688.22;5056811;28;45416;-77
2024/01/11 15:41:41;;;;;;;;;50.00;43.50;;;;;14.35;28.09;102686.25;5050075;28;45392;-78
2024/01/11 15:44:06;;;;;;;;;53.75;44.00;;;;;14.18;28.46;102692.16;5056491;28;45488;-77
2024/01/11 15:46:31;;;;;;;;;51.75;43.25;;;;;14.03;28.44;102689.91;5056102;28;58397;-79
2024/01/11 15:48:57;;;;;;;;;54.25;44.75;;;;;13.90;29.25;102705.56;5038118;28;45690;-78
2024/01/11 15:51:22;;;;;;;;;59.00;47.67;;;;;13.64;29.16;102687.41;5056619;28;45346;-77
2024/01/11 15:53:49;;;;;;;;;58.75;46.00;;;;;13.61;29.49;102711.75;5056474;28;45335;-77
2024/01/11 15:56:15;;;;;;;;;53.00;45.00;;;;;13.56;29.73;102719.06;5056663;28;45464;-76
2024/01/11 15:58:40;;;;;;;;;61.33;48.67;;;;;13.45;29.55;102720.28;5056348;28;45834;-77
2024/01/11 16:01:05;;;;;;;;;59.00;48.33;;;;;13.30;30.35;102724.25;5057926;28;45919;-77
2024/01/11 16:03:32;;;;;;;;;55.67;45.67;;;;;13.23;30.54;102731.63;5057261;28;45658;-79
2024/01/11 16:05:57;;;;;;;;;64.33;51.00;;;;;13.12;30.32;102730.06;5058247;28;46637;-78
2024/01/11 16:08:22;;;;;;;;;62.33;49.33;;;;;12.98;30.42;102726.84;5058572;28;51693;-76
2024/01/11 16:10:48;;;;;;;;;57.67;46.00;;;;;12.93;30.49;102732.31;5058693;28;45527;-78
2024/01/11 16:13:13;;;;;;;;;62.33;50.00;;;;;12.85;30.61;102728.94;5055798;28;45578;-77
2024/01/11 16:15:38;;;;;;;;;59.67;46.67;;;;;12.59;30.79;102720.63;5046541;28;45983;-77
2024/01/11 16:18:04;;;;;;;;;65.00;48.00;;;;;12.65;31.15;102723.16;5048684;28;56642;-78
2024/01/11 16:20:29;;;;;;;;;55.33;45.67;;;;;12.29;30.88;102674.63;5055396;28;45382;-76
2024/01/11 16:22:55;;;;;;;;;52.33;40.67;;;;;12.52;31.44;102742.25;5056319;28;45410;-76
2024/01/11 16:25:20;;;;;;;;;48.33;42.00;;;;;12.41;31.26;102732.66;5036746;28;46505;-75
2024/01/11 16:27:46;;;;;;;;;57.67;47.33;;;;;12.37;31.13;102749.78;5031489;28;45478;-76
2024/01/11 16:30:12;;;;;;;;;63.33;51.00;;;;;12.17;31.22;102725.97;5044077;28;45523;-76
2024/01/11 16:32:38;;;;;;;;;63.67;49.67;;;;;12.23;31.50;102750.06;5035295;28;45547;-72
2024/01/11 16:35:04;;;;;;;;;61.33;51.00;;;;;12.18;31.95;102762.72;5020960;28;46951;-75
2024/01/11 16:37:30;;;;;;;;;61.00;47.00;;;;;12.07;31.57;102762.06;5021423;28;45495;-76